Time;durP1;ratioP1;P1;durP2;ratioP2;P2;SDS_P1;SDS_P2;PMS_P1;PMS_P2;Temp;Humidity;BMP_temperature;BMP_pressure;BME280_temperature;BME280_humidity;BME280_pressure;Samples;Min_cycle;Max_cycle;Signal;HPM_P1;HPM_P2
2023/12/18 00:02:25;;;;;;;33.55;17.25;;;;;;;;;;4963244;28;20101;-75
2023/12/18 00:04:51;;;;;;;35.97;17.48;;;;;;;;;;4968183;28;20062;-75
2023/12/18 00:07:17;;;;;;;37.25;17.65;;;;;;;;;;4970007;28;20047;-75
2023/12/18 00:09:43;;;;;;;37.40;17.52;;;;;;;;;;4968855;28;20043;-74
2023/12/18 00:12:09;;;;;;;29.63;16.70;;;;;;;;;;4971301;28;20042;-75
2023/12/18 00:14:35;;;;;;;33.95;17.25;;;;;;;;;;4974632;28;20050;-75
2023/12/18 00:17:01;;;;;;;39.25;17.48;;;;;;;;;;4975662;28;20051;-75
2023/12/18 00:19:27;;;;;;;31.73;16.83;;;;;;;;;;4975692;28;20057;-75
2023/12/18 00:21:53;;;;;;;33.33;17.13;;;;;;;;;;4975594;28;20050;-75
2023/12/18 00:24:19;;;;;;;36.25;18.05;;;;;;;;;;4975813;28;20105;-75
2023/12/18 00:26:45;;;;;;;34.72;16.70;;;;;;;;;;4973850;28;20126;-75
2023/12/18 00:29:11;;;;;;;30.98;17.35;;;;;;;;;;4974772;28;20053;-75
2023/12/18 00:31:37;;;;;;;35.30;17.75;;;;;;;;;;4973785;28;20051;-75
2023/12/18 00:34:03;;;;;;;35.97;18.42;;;;;;;;;;4975262;28;20047;-75
2023/12/18 00:36:29;;;;;;;36.63;16.83;;;;;;;;;;4975802;28;20062;-75
2023/12/18 00:38:55;;;;;;;32.33;17.38;;;;;;;;;;4975024;28;20515;-75
2023/12/18 00:41:21;;;;;;;35.92;17.50;;;;;;;;;;4975110;28;20128;-75
2023/12/18 00:43:47;;;;;;;32.63;17.02;;;;;;;;;;4973116;28;20051;-75
2023/12/18 00:46:13;;;;;;;31.90;17.00;;;;;;;;;;4973576;28;20113;-74
2023/12/18 00:48:39;;;;;;;35.10;18.00;;;;;;;;;;4973623;28;20047;-75
2023/12/18 00:51:11;;;;;;;36.00;18.73;;;;;;;;;;4969007;28;20043;-75
2023/12/18 00:53:37;;;;;;;35.63;18.75;;;;;;;;;;4974102;28;20046;-75
2023/12/18 00:56:03;;;;;;;34.10;17.80;;;;;;;;;;4974442;28;20038;-75
2023/12/18 00:58:29;;;;;;;36.30;18.52;;;;;;;;;;4969991;28;20046;-75
2023/12/18 01:00:55;;;;;;;32.00;16.85;;;;;;;;;;4962194;28;20043;-75
2023/12/18 01:03:22;;;;;;;34.20;18.08;;;;;;;;;;4973777;28;20051;-75
2023/12/18 01:05:49;;;;;;;30.58;17.25;;;;;;;;;;4974635;28;20051;-75
2023/12/18 01:08:15;;;;;;;30.50;16.92;;;;;;;;;;4965081;28;20408;-75
2023/12/18 01:10:41;;;;;;;33.55;17.77;;;;;;;;;;4972564;28;20069;-75
2023/12/18 01:13:07;;;;;;;31.17;16.27;;;;;;;;;;4973240;28;20437;-75
2023/12/18 01:15:33;;;;;;;36.60;17.63;;;;;;;;;;4970769;28;20047;-75
2023/12/18 01:17:59;;;;;;;33.05;17.98;;;;;;;;;;4986904;28;20049;-75
2023/12/18 01:20:25;;;;;;;32.50;16.98;;;;;;;;;;4975401;28;20118;-75
2023/12/18 01:22:51;;;;;;;34.10;18.13;;;;;;;;;;4973867;28;20054;-75
2023/12/18 01:25:17;;;;;;;33.35;17.77;;;;;;;;;;4974429;28;20047;-75
2023/12/18 01:27:43;;;;;;;36.78;17.63;;;;;;;;;;4974417;28;20582;-75
2023/12/18 01:30:09;;;;;;;33.38;17.60;;;;;;;;;;4974310;28;20061;-75
2023/12/18 01:32:36;;;;;;;32.33;17.08;;;;;;;;;;4972755;28;20126;-75
2023/12/18 01:35:02;;;;;;;27.75;16.77;;;;;;;;;;4974311;28;20051;-75
2023/12/18 01:37:28;;;;;;;32.88;15.75;;;;;;;;;;4973423;28;20401;-75
2023/12/18 01:39:54;;;;;;;33.10;16.80;;;;;;;;;;4971682;28;20412;-75
2023/12/18 01:42:20;;;;;;;34.38;16.40;;;;;;;;;;4975751;28;20042;-75
2023/12/18 01:44:48;;;;;;;34.90;16.65;;;;;;;;;;4973250;28;20042;-75
2023/12/18 01:47:15;;;;;;;35.22;18.13;;;;;;;;;;4969229;28;20054;-75
2023/12/18 01:49:41;;;;;;;31.17;16.35;;;;;;;;;;4968777;28;20038;-75
2023/12/18 01:52:07;;;;;;;29.92;17.45;;;;;;;;;;4969699;28;20401;-75
2023/12/18 01:54:33;;;;;;;36.03;17.52;;;;;;;;;;4963436;28;20086;-75
2023/12/18 01:56:59;;;;;;;35.03;18.20;;;;;;;;;;4962317;28;20039;-75
2023/12/18 01:59:25;;;;;;;36.15;18.20;;;;;;;;;;4970062;28;20091;-75
2023/12/18 02:01:52;;;;;;;32.63;18.13;;;;;;;;;;4969284;28;20043;-75
2023/12/18 02:04:18;;;;;;;33.65;18.23;;;;;;;;;;4971103;28;20050;-75
2023/12/18 02:06:45;;;;;;;35.72;18.48;;;;;;;;;;4974179;28;20053;-75
2023/12/18 02:09:11;;;;;;;36.63;19.27;;;;;;;;;;4953172;28;20050;-75
2023/12/18 02:11:38;;;;;;;30.35;17.73;;;;;;;;;;4973213;28;20394;-75
2023/12/18 02:14:05;;;;;;;36.10;19.02;;;;;;;;;;4975832;28;20058;-75
2023/12/18 02:16:31;;;;;;;36.60;18.45;;;;;;;;;;4974530;28;20046;-75
2023/12/18 02:18:57;;;;;;;29.05;17.50;;;;;;;;;;4966654;28;20063;-75
2023/12/18 02:21:23;;;;;;;36.65;18.88;;;;;;;;;;4974362;28;20035;-75
2023/12/18 02:23:49;;;;;;;34.05;17.15;;;;;;;;;;4975683;28;20043;-75
2023/12/18 02:26:16;;;;;;;31.02;18.60;;;;;;;;;;4977586;28;20089;-75
2023/12/18 02:28:43;;;;;;;32.95;18.83;;;;;;;;;;4973057;28;20485;-75
2023/12/18 02:31:11;;;;;;;37.00;18.80;;;;;;;;;;4977206;28;20497;-75
2023/12/18 02:33:37;;;;;;;36.30;19.17;;;;;;;;;;4977617;28;20051;-75
2023/12/18 02:36:03;;;;;;;38.28;18.80;;;;;;;;;;4977381;28;20086;-75
2023/12/18 02:38:29;;;;;;;32.92;19.20;;;;;;;;;;4977398;28;20524;-75
2023/12/18 02:40:55;;;;;;;31.75;18.15;;;;;;;;;;4977132;28;20113;-75
2023/12/18 02:43:21;;;;;;;34.65;18.77;;;;;;;;;;4976360;28;20050;-75
2023/12/18 02:45:47;;;;;;;39.25;19.25;;;;;;;;;;4977359;28;20059;-75
2023/12/18 02:48:13;;;;;;;35.17;18.35;;;;;;;;;;4977168;28;20055;-75
2023/12/18 02:50:39;;;;;;;34.35;20.20;;;;;;;;;;4977173;28;20058;-74
2023/12/18 02:53:05;;;;;;;36.22;20.67;;;;;;;;;;4975885;28;20046;-75
2023/12/18 02:55:31;;;;;;;34.67;20.38;;;;;;;;;;4976963;28;20043;-75
2023/12/18 02:57:57;;;;;;;41.40;21.65;;;;;;;;;;4976709;28;20523;-75
2023/12/18 03:00:24;;;;;;;33.88;20.45;;;;;;;;;;4976801;28;20140;-74
2023/12/18 03:02:50;;;;;;;35.55;20.45;;;;;;;;;;4976754;28;20062;-75
2023/12/18 03:05:16;;;;;;;38.53;21.00;;;;;;;;;;4976839;28;20047;-75
2023/12/18 03:07:42;;;;;;;40.42;21.35;;;;;;;;;;4976976;28;20070;-75
2023/12/18 03:10:09;;;;;;;37.55;21.58;;;;;;;;;;4976460;28;20050;-75
2023/12/18 03:12:35;;;;;;;37.65;21.52;;;;;;;;;;4976739;28;20042;-75
2023/12/18 03:15:01;;;;;;;38.28;20.88;;;;;;;;;;4965156;28;20055;-75
2023/12/18 03:17:28;;;;;;;31.52;21.35;;;;;;;;;;4969800;28;20046;-75
2023/12/18 03:19:54;;;;;;;40.85;20.67;;;;;;;;;;4963064;28;20511;-75
2023/12/18 03:22:20;;;;;;;42.80;21.98;;;;;;;;;;4974979;28;20054;-75
2023/12/18 03:24:46;;;;;;;35.08;22.52;;;;;;;;;;4973598;28;20058;-75
2023/12/18 03:27:12;;;;;;;40.28;22.45;;;;;;;;;;4975845;28;20049;-75
2023/12/18 03:29:38;;;;;;;39.53;22.75;;;;;;;;;;4975192;28;20047;-75
2023/12/18 03:32:05;;;;;;;34.95;21.77;;;;;;;;;;4964843;28;20055;-75
2023/12/18 03:34:31;;;;;;;37.05;22.13;;;;;;;;;;4971056;28;20493;-75
2023/12/18 03:36:57;;;;;;;35.58;21.50;;;;;;;;;;4974789;28;20453;-75
2023/12/18 03:39:23;;;;;;;39.55;21.45;;;;;;;;;;4976216;28;20057;-75
2023/12/18 03:41:49;;;;;;;41.15;21.52;;;;;;;;;;4957645;28;20065;-75
2023/12/18 03:44:15;;;;;;;37.78;21.83;;;;;;;;;;4970025;28;20098;-75
2023/12/18 03:46:41;;;;;;;39.58;22.33;;;;;;;;;;4976055;28;20082;-75
2023/12/18 03:49:07;;;;;;;33.28;21.42;;;;;;;;;;4976221;28;20047;-75
2023/12/18 03:51:33;;;;;;;41.08;21.92;;;;;;;;;;4975955;28;20502;-75
2023/12/18 03:53:59;;;;;;;45.03;22.30;;;;;;;;;;4976049;28;20046;-75
2023/12/18 03:56:25;;;;;;;39.35;21.83;;;;;;;;;;4976248;28;20054;-75
2023/12/18 03:58:51;;;;;;;38.20;22.15;;;;;;;;;;4976098;28;20042;-75
2023/12/18 04:01:17;;;;;;;35.78;21.63;;;;;;;;;;4975876;28;20054;-75
2023/12/18 04:03:43;;;;;;;36.40;21.80;;;;;;;;;;4975656;28;20058;-75
2023/12/18 04:06:10;;;;;;;37.15;22.70;;;;;;;;;;4975897;28;20051;-75
2023/12/18 04:08:36;;;;;;;32.72;19.77;;;;;;;;;;4975519;28;20502;-75
2023/12/18 04:11:03;;;;;;;35.83;21.38;;;;;;;;;;4975725;28;20141;-75
2023/12/18 04:13:29;;;;;;;41.40;22.75;;;;;;;;;;4973666;28;20042;-75
2023/12/18 04:15:55;;;;;;;37.97;22.38;;;;;;;;;;4976194;28;20046;-75
2023/12/18 04:18:21;;;;;;;34.88;21.30;;;;;;;;;;4973446;28;20054;-74
2023/12/18 04:20:47;;;;;;;32.08;23.42;;;;;;;;;;4974780;28;20042;-75
2023/12/18 04:23:13;;;;;;;38.22;23.70;;;;;;;;;;4958277;28;20054;-75
2023/12/18 04:25:39;;;;;;;43.53;23.95;;;;;;;;;;4970615;28;20117;-75
2023/12/18 04:28:05;;;;;;;38.22;23.88;;;;;;;;;;4961620;28;20043;-75
2023/12/18 04:30:31;;;;;;;38.25;22.45;;;;;;;;;;4972326;28;20051;-75
2023/12/18 04:32:57;;;;;;;33.88;22.08;;;;;;;;;;4975205;28;20058;-75
2023/12/18 04:35:23;;;;;;;35.83;23.13;;;;;;;;;;4960708;28;20456;-75
2023/12/18 04:37:49;;;;;;;32.63;20.75;;;;;;;;;;4975235;28;20446;-75
2023/12/18 04:40:15;;;;;;;34.40;21.27;;;;;;;;;;4969554;28;20125;-75
2023/12/18 04:42:42;;;;;;;36.28;20.35;;;;;;;;;;4973275;28;20129;-75
2023/12/18 04:45:08;;;;;;;36.67;20.55;;;;;;;;;;4966453;28;20051;-75
2023/12/18 04:47:34;;;;;;;36.58;20.65;;;;;;;;;;4971125;28;20049;-75
2023/12/18 04:50:00;;;;;;;35.75;20.35;;;;;;;;;;4975222;28;20512;-74
2023/12/18 04:52:26;;;;;;;33.38;19.85;;;;;;;;;;4974437;28;20046;-75
2023/12/18 04:54:53;;;;;;;29.40;19.02;;;;;;;;;;4975162;28;20043;-75
2023/12/18 04:57:19;;;;;;;33.40;20.13;;;;;;;;;;4979877;28;20180;-75
2023/12/18 04:59:45;;;;;;;32.33;19.27;;;;;;;;;;4974037;28;20050;-75
2023/12/18 05:02:11;;;;;;;34.75;19.83;;;;;;;;;;4965933;28;20390;-75
2023/12/18 05:04:37;;;;;;;36.70;19.77;;;;;;;;;;4978467;28;20055;-75
2023/12/18 05:07:03;;;;;;;31.50;18.85;;;;;;;;;;4970127;28;20081;-75
2023/12/18 05:09:29;;;;;;;34.05;19.55;;;;;;;;;;4956394;28;20119;-75
2023/12/18 05:11:55;;;;;;;33.85;18.67;;;;;;;;;;4967411;28;20057;-75
2023/12/18 05:14:22;;;;;;;34.95;19.08;;;;;;;;;;4957210;28;20043;-75
2023/12/18 05:16:48;;;;;;;30.90;17.95;;;;;;;;;;4966472;28;20110;-74
2023/12/18 05:19:14;;;;;;;31.58;19.13;;;;;;;;;;4957962;28;20106;-75
2023/12/18 05:21:40;;;;;;;31.08;18.73;;;;;;;;;;4967483;28;20051;-75
2023/12/18 05:24:06;;;;;;;31.83;18.88;;;;;;;;;;4955149;28;20047;-75
2023/12/18 05:26:32;;;;;;;35.75;18.90;;;;;;;;;;4972498;28;20043;-75
2023/12/18 05:28:59;;;;;;;28.17;17.80;;;;;;;;;;4973073;28;20106;-75
2023/12/18 05:31:25;;;;;;;31.20;18.67;;;;;;;;;;4969298;28;20042;-74
2023/12/18 05:33:51;;;;;;;32.88;18.63;;;;;;;;;;4972422;28;20071;-75
2023/12/18 05:36:17;;;;;;;32.58;18.70;;;;;;;;;;4965106;28;20050;-75
2023/12/18 05:38:43;;;;;;;34.55;18.83;;;;;;;;;;4974407;28;20125;-75
2023/12/18 05:41:09;;;;;;;33.95;19.00;;;;;;;;;;4973564;28;20070;-75
2023/12/18 05:43:35;;;;;;;28.38;17.50;;;;;;;;;;4965590;28;20568;-75
2023/12/18 05:46:02;;;;;;;29.08;18.40;;;;;;;;;;4955727;28;20771;-75
2023/12/18 05:48:28;;;;;;;36.15;19.83;;;;;;;;;;4972736;28;20047;-75
2023/12/18 05:50:54;;;;;;;34.15;19.88;;;;;;;;;;4964371;28;20416;-75
2023/12/18 05:53:20;;;;;;;35.35;19.05;;;;;;;;;;4968891;28;20073;-75
2023/12/18 05:55:46;;;;;;;32.80;18.42;;;;;;;;;;4972248;28;20043;-75
2023/12/18 05:58:12;;;;;;;32.78;20.05;;;;;;;;;;4973205;28;20046;-75
2023/12/18 06:00:38;;;;;;;37.72;20.10;;;;;;;;;;4971041;28;20038;-75
2023/12/18 06:03:04;;;;;;;36.90;20.83;;;;;;;;;;4970866;28;20047;-75
2023/12/18 06:05:30;;;;;;;31.98;19.73;;;;;;;;;;4967817;28;20074;-75
2023/12/18 06:07:56;;;;;;;34.70;20.42;;;;;;;;;;4984111;28;20051;-75
2023/12/18 06:10:22;;;;;;;36.95;20.55;;;;;;;;;;4972557;28;20496;-75
2023/12/18 06:12:51;;;;;;;31.27;20.30;;;;;;;;;;4972454;28;20110;-74
2023/12/18 06:15:17;;;;;;;29.70;19.25;;;;;;;;;;4973111;28;20051;-75
2023/12/18 06:17:43;;;;;;;31.92;18.38;;;;;;;;;;4973137;28;20049;-75
2023/12/18 06:20:09;;;;;;;29.73;18.98;;;;;;;;;;4972537;28;20117;-75
2023/12/18 06:22:35;;;;;;;31.05;18.92;;;;;;;;;;4971185;28;20676;-75
2023/12/18 06:25:03;;;;;;;37.15;18.85;;;;;;;;;;4956024;28;20051;-75
2023/12/18 06:27:29;;;;;;;28.25;18.77;;;;;;;;;;4971307;28;20408;-75
2023/12/18 06:29:55;;;;;;;29.90;19.00;;;;;;;;;;4973863;28;20054;-75
2023/12/18 06:32:21;;;;;;;33.83;19.83;;;;;;;;;;4969231;28;20130;-75
2023/12/18 06:34:47;;;;;;;39.03;20.23;;;;;;;;;;4966718;28;20571;-75
2023/12/18 06:37:13;;;;;;;33.22;19.95;;;;;;;;;;4975924;28;20408;-75
2023/12/18 06:39:39;;;;;;;31.98;20.13;;;;;;;;;;4983763;28;20135;-75
2023/12/18 06:42:05;;;;;;;28.58;20.10;;;;;;;;;;4967356;28;20050;-75
2023/12/18 06:44:31;;;;;;;31.08;19.92;;;;;;;;;;4956537;28;20054;-75
2023/12/18 06:46:58;;;;;;;37.40;20.05;;;;;;;;;;4966764;28;20401;-75
2023/12/18 06:49:24;;;;;;;32.75;20.45;;;;;;;;;;4961525;28;20050;-75
2023/12/18 06:51:50;;;;;;;34.92;20.33;;;;;;;;;;4972419;28;20047;-75
2023/12/18 06:54:17;;;;;;;31.15;20.63;;;;;;;;;;4973018;28;20126;-74
2023/12/18 06:56:43;;;;;;;38.45;21.05;;;;;;;;;;4970957;28;20042;-75
2023/12/18 06:59:09;;;;;;;32.30;20.27;;;;;;;;;;4965584;28;20536;-75
2023/12/18 07:01:36;;;;;;;32.20;20.35;;;;;;;;;;4969441;28;20500;-75
2023/12/18 07:04:03;;;;;;;35.97;21.75;;;;;;;;;;4972929;28;20059;-75
2023/12/18 07:06:30;;;;;;;36.33;21.88;;;;;;;;;;4975382;28;20059;-75
2023/12/18 07:08:56;;;;;;;32.17;20.73;;;;;;;;;;4968899;28;20051;-75
2023/12/18 07:11:22;;;;;;;36.47;21.50;;;;;;;;;;4975703;28;20409;-75
2023/12/18 07:13:48;;;;;;;30.70;19.95;;;;;;;;;;4968754;28;20098;-75
2023/12/18 07:16:21;;;;;;;34.17;21.30;;;;;;;;;;4970083;28;20101;-75
2023/12/18 07:18:47;;;;;;;33.92;20.40;;;;;;;;;;4973722;28;20051;-75
2023/12/18 07:21:13;;;;;;;38.78;21.33;;;;;;;;;;4975023;28;20046;-75
2023/12/18 07:23:40;;;;;;;33.05;21.77;;;;;;;;;;4976644;28;20054;-75
2023/12/18 07:26:08;;;;;;;37.90;22.13;;;;;;;;;;4965049;28;20082;-75
2023/12/18 07:28:34;;;;;;;30.95;21.92;;;;;;;;;;4964921;28;20071;-75
2023/12/18 07:31:02;;;;;;;36.88;22.17;;;;;;;;;;4974390;28;20074;-75
2023/12/18 07:33:28;;;;;;;32.20;22.20;;;;;;;;;;4969244;28;20156;-75
2023/12/18 07:35:54;;;;;;;33.65;21.52;;;;;;;;;;4965007;28;20051;-74
2023/12/18 07:38:20;;;;;;;34.20;22.30;;;;;;;;;;4972830;28;20039;-74
2023/12/18 07:40:46;;;;;;;36.05;22.02;;;;;;;;;;4966510;28;20050;-74
2023/12/18 07:43:12;;;;;;;36.13;22.35;;;;;;;;;;4974167;28;20046;-75
2023/12/18 07:45:38;;;;;;;35.53;22.27;;;;;;;;;;4974948;28;20047;-74
2023/12/18 07:48:05;;;;;;;36.15;23.10;;;;;;;;;;4972929;28;20047;-74
2023/12/18 07:50:31;;;;;;;36.33;22.80;;;;;;;;;;4971394;28;20042;-75
2023/12/18 07:52:57;;;;;;;35.60;20.88;;;;;;;;;;4975551;28;20055;-75
2023/12/18 07:55:23;;;;;;;31.38;22.92;;;;;;;;;;4975394;28;20047;-75
2023/12/18 07:57:49;;;;;;;42.20;23.92;;;;;;;;;;4974454;28;20042;-75
2023/12/18 08:00:15;;;;;;;40.17;23.23;;;;;;;;;;4973344;28;20046;-75
2023/12/18 08:02:42;;;;;;;31.75;22.42;;;;;;;;;;4975261;28;20063;-75
2023/12/18 08:05:08;;;;;;;33.92;23.35;;;;;;;;;;4975132;28;20481;-75
2023/12/18 08:07:34;;;;;;;36.45;22.67;;;;;;;;;;4965393;28;20051;-75
2023/12/18 08:10:00;;;;;;;36.00;22.98;;;;;;;;;;4954890;28;20055;-75
2023/12/18 08:12:26;;;;;;;38.15;25.02;;;;;;;;;;4971305;28;20047;-75
2023/12/18 08:14:54;;;;;;;42.40;23.35;;;;;;;;;;4970954;28;20047;-75
2023/12/18 08:17:20;;;;;;;36.30;22.83;;;;;;;;;;4964854;28;20101;-75
2023/12/18 08:19:47;;;;;;;36.60;22.95;;;;;;;;;;4963219;28;20051;-75
2023/12/18 08:22:13;;;;;;;33.05;22.85;;;;;;;;;;4955853;28;20051;-75
2023/12/18 08:24:39;;;;;;;35.55;23.77;;;;;;;;;;4970139;28;20047;-74
2023/12/18 08:27:05;;;;;;;39.35;23.88;;;;;;;;;;4973786;28;20046;-75
2023/12/18 08:29:31;;;;;;;33.20;23.48;;;;;;;;;;4956470;28;20469;-75
2023/12/18 08:31:57;;;;;;;36.85;24.27;;;;;;;;;;4973644;28;20497;-75
2023/12/18 08:34:24;;;;;;;41.00;24.30;;;;;;;;;;4972386;28;20047;-75
2023/12/18 08:36:52;;;;;;;38.88;23.15;;;;;;;;;;4974660;28;20445;-75
2023/12/18 08:39:18;;;;;;;38.88;23.77;;;;;;;;;;4966851;28;20106;-75
2023/12/18 08:41:47;;;;;;;41.60;23.92;;;;;;;;;;4972542;28;20047;-75
2023/12/18 08:44:13;;;;;;;34.38;22.95;;;;;;;;;;4972571;28;20047;-75
2023/12/18 08:46:39;;;;;;;37.85;24.23;;;;;;;;;;4970588;28;20488;-75
2023/12/18 08:49:05;;;;;;;35.22;23.60;;;;;;;;;;4974137;28;20050;-75
2023/12/18 08:51:31;;;;;;;36.88;23.63;;;;;;;;;;4973365;28;20085;-75
2023/12/18 08:53:57;;;;;;;37.80;24.55;;;;;;;;;;4973329;28;20131;-75
2023/12/18 08:56:25;;;;;;;35.80;22.77;;;;;;;;;;4974470;28;20354;-75
2023/12/18 08:58:52;;;;;;;38.78;23.85;;;;;;;;;;4974676;28;20085;-74
2023/12/18 09:01:18;;;;;;;34.97;23.83;;;;;;;;;;4972213;28;20122;-75
2023/12/18 09:03:44;;;;;;;35.08;23.70;;;;;;;;;;4967781;28;20078;-75
2023/12/18 09:06:11;;;;;;;35.13;22.52;;;;;;;;;;4974456;28;20042;-75
2023/12/18 09:08:40;;;;;;;36.17;24.35;;;;;;;;;;4974480;28;20043;-75
2023/12/18 09:11:07;;;;;;;38.00;23.60;;;;;;;;;;4974230;28;20058;-75
2023/12/18 09:13:36;;;;;;;35.92;23.90;;;;;;;;;;4974213;28;20043;-75
2023/12/18 09:16:06;;;;;;;39.35;24.05;;;;;;;;;;4965526;28;20086;-75
2023/12/18 09:18:33;;;;;;;38.92;23.58;;;;;;;;;;4973991;28;20065;-75
2023/12/18 09:20:59;;;;;;;38.10;23.05;;;;;;;;;;4973994;28;20050;-75
2023/12/18 09:23:26;;;;;;;32.78;22.30;;;;;;;;;;4972239;28;20051;-75
2023/12/18 09:25:52;;;;;;;42.53;24.08;;;;;;;;;;4973627;28;20042;-75
2023/12/18 09:28:18;;;;;;;36.20;23.02;;;;;;;;;;4965826;28;20063;-75
2023/12/18 09:30:44;;;;;;;34.38;22.83;;;;;;;;;;4968401;28;20051;-75
2023/12/18 09:33:11;;;;;;;39.58;24.83;;;;;;;;;;4970714;28;20059;-75
2023/12/18 09:35:37;;;;;;;41.58;26.90;;;;;;;;;;4969101;28;20047;-73
2023/12/18 09:38:04;;;;;;;37.58;24.35;;;;;;;;;;4967860;28;20057;-74
2023/12/18 09:40:30;;;;;;;42.58;26.10;;;;;;;;;;4972900;28;20374;-75
2023/12/18 09:42:56;;;;;;;37.83;24.92;;;;;;;;;;4964649;28;20797;-75
2023/12/18 09:45:23;;;;;;;40.42;25.30;;;;;;;;;;4973566;28;20432;-75
2023/12/18 09:47:55;;;;;;;38.97;25.08;;;;;;;;;;4971739;28;20039;-75
2023/12/18 09:50:21;;;;;;;36.88;24.30;;;;;;;;;;4973386;28;20152;-75
2023/12/18 09:52:57;;;;;;;35.45;23.90;;;;;;;;;;4955370;28;20051;-75
2023/12/18 09:55:23;;;;;;;37.60;24.73;;;;;;;;;;4961205;28;20120;-75
2023/12/18 09:57:51;;;;;;;37.47;24.63;;;;;;;;;;4972872;28;20102;-75
2023/12/18 10:00:19;;;;;;;41.70;25.75;;;;;;;;;;4973163;28;20057;-75
2023/12/18 10:02:46;;;;;;;39.10;26.50;;;;;;;;;;4972136;28;20059;-75
2023/12/18 10:05:12;;;;;;;41.88;26.48;;;;;;;;;;4973745;28;20054;-75
2023/12/18 10:07:38;;;;;;;33.08;25.88;;;;;;;;;;4959739;28;20093;-75
2023/12/18 10:10:04;;;;;;;41.80;27.23;;;;;;;;;;4961453;28;20054;-75
2023/12/18 10:12:30;;;;;;;40.92;27.67;;;;;;;;;;4971069;28;20047;-75
2023/12/18 10:14:56;;;;;;;42.75;26.70;;;;;;;;;;4970938;28;20051;-75
2023/12/18 10:17:23;;;;;;;38.03;26.77;;;;;;;;;;4973043;28;20134;-74
2023/12/18 10:19:50;;;;;;;39.40;27.30;;;;;;;;;;4973358;28;20043;-75
2023/12/18 10:22:19;;;;;;;37.35;26.48;;;;;;;;;;4971599;28;20043;-75
2023/12/18 10:24:45;;;;;;;41.55;27.30;;;;;;;;;;4972212;28;20046;-75
2023/12/18 10:27:11;;;;;;;44.38;27.15;;;;;;;;;;4969969;28;20051;-75
2023/12/18 10:29:37;;;;;;;40.97;27.25;;;;;;;;;;4972620;28;20047;-74
2023/12/18 10:32:04;;;;;;;42.13;27.85;;;;;;;;;;4972609;28;20098;-75
2023/12/18 10:34:36;;;;;;;37.28;26.63;;;;;;;;;;4974163;28;20100;-75
2023/12/18 10:37:02;;;;;;;42.15;26.50;;;;;;;;;;4976517;28;20498;-75
2023/12/18 10:39:30;;;;;;;37.65;27.10;;;;;;;;;;4973019;28;20042;-75
2023/12/18 10:42:04;;;;;;;44.25;27.17;;;;;;;;;;4975340;28;20473;-75
2023/12/18 10:44:30;;;;;;;42.85;27.52;;;;;;;;;;4973938;28;20057;-74
2023/12/18 10:46:57;;;;;;;44.42;27.48;;;;;;;;;;4976015;28;20442;-75
2023/12/18 10:49:24;;;;;;;38.97;27.45;;;;;;;;;;4975617;28;20437;-74
2023/12/18 10:51:50;;;;;;;44.70;30.23;;;;;;;;;;4976300;28;20043;-75
2023/12/18 10:54:17;;;;;;;41.05;27.73;;;;;;;;;;4976543;28;20072;-76
2023/12/18 10:56:45;;;;;;;43.95;29.05;;;;;;;;;;4956759;28;20051;-75
2023/12/18 10:59:12;;;;;;;39.22;27.45;;;;;;;;;;4976508;28;20108;-75
2023/12/18 11:01:38;;;;;;;43.55;28.52;;;;;;;;;;4967615;28;20040;-75
2023/12/18 11:04:04;;;;;;;41.38;27.60;;;;;;;;;;4965610;28;20047;-76
2023/12/18 11:06:30;;;;;;;47.25;28.85;;;;;;;;;;4976058;28;20046;-75
2023/12/18 11:08:57;;;;;;;47.90;28.85;;;;;;;;;;4974749;28;20054;-75
2023/12/18 11:11:24;;;;;;;37.88;26.77;;;;;;;;;;4962410;28;20051;-75
2023/12/18 11:13:56;;;;;;;43.90;27.75;;;;;;;;;;4968418;28;20042;-75
2023/12/18 11:16:41;;;;;;;43.13;27.15;;;;;;;;;;4977067;28;20113;-75
2023/12/18 11:19:10;;;;;;;43.25;28.02;;;;;;;;;;4975155;28;20109;-76
2023/12/18 11:21:36;;;;;;;42.95;28.73;;;;;;;;;;4974771;28;20038;-74
2023/12/18 11:24:03;;;;;;;45.47;26.08;;;;;;;;;;4966636;28;20070;-75
2023/12/18 11:26:30;;;;;;;38.65;28.08;;;;;;;;;;4975321;28;20105;-75
2023/12/18 11:28:58;;;;;;;40.47;27.77;;;;;;;;;;4974263;28;20094;-74
2023/12/18 11:31:24;;;;;;;38.70;27.25;;;;;;;;;;4976063;28;20061;-75
2023/12/18 11:34:03;;;;;;;43.95;26.38;;;;;;;;;;4974667;28;20039;-75
2023/12/18 11:36:29;;;;;;;37.78;26.77;;;;;;;;;;4973994;28;20050;-75
2023/12/18 11:38:57;;;;;;;39.35;26.42;;;;;;;;;;4970418;28;20110;-74
2023/12/18 11:41:39;;;;;;;42.90;25.52;;;;;;;;;;4957186;28;20110;-75
2023/12/18 11:44:08;;;;;;;40.10;26.48;;;;;;;;;;4976140;28;20043;-75
2023/12/18 11:46:34;;;;;;;43.25;26.70;;;;;;;;;;4969397;28;20351;-75
2023/12/18 11:49:02;;;;;;;47.33;27.48;;;;;;;;;;4972112;28;20054;-75
2023/12/18 11:51:28;;;;;;;43.55;26.17;;;;;;;;;;4974400;28;20080;-75
2023/12/18 11:53:59;;;;;;;41.10;25.52;;;;;;;;;;4968018;28;20050;-75
2023/12/18 11:56:27;;;;;;;37.65;25.55;;;;;;;;;;4973526;28;20081;-75
2023/12/18 11:58:55;;;;;;;42.20;26.83;;;;;;;;;;4964157;28;20058;-75
2023/12/18 12:01:21;;;;;;;38.88;26.52;;;;;;;;;;4975897;28;20053;-75
2023/12/18 12:03:47;;;;;;;40.47;26.40;;;;;;;;;;4975259;28;20054;-74
2023/12/18 12:06:17;;;;;;;38.00;26.02;;;;;;;;;;4975899;28;20063;-75
2023/12/18 12:08:50;;;;;;;39.30;26.15;;;;;;;;;;4973855;28;20362;-75
2023/12/18 12:11:16;;;;;;;40.30;24.88;;;;;;;;;;4960967;28;20051;-74
2023/12/18 12:13:42;;;;;;;42.42;26.45;;;;;;;;;;4989213;28;20097;-74
2023/12/18 12:16:08;;;;;;;39.85;25.38;;;;;;;;;;4975334;28;20082;-75
2023/12/18 12:18:35;;;;;;;44.38;25.60;;;;;;;;;;4975534;28;20086;-75
2023/12/18 12:21:01;;;;;;;40.08;24.45;;;;;;;;;;4975492;28;20062;-75
2023/12/18 12:23:28;;;;;;;40.17;25.80;;;;;;;;;;4969563;28;20043;-75
2023/12/18 12:26:01;;;;;;;36.38;24.65;;;;;;;;;;4956022;28;20133;-75
2023/12/18 12:28:31;;;;;;;41.33;24.65;;;;;;;;;;4967290;28;20523;-75
2023/12/18 12:31:00;;;;;;;37.05;23.83;;;;;;;;;;4971259;28;20055;-75
2023/12/18 12:33:26;;;;;;;36.67;24.27;;;;;;;;;;4969941;28;20038;-73
2023/12/18 12:35:56;;;;;;;41.10;24.88;;;;;;;;;;4974021;28;20051;-74
2023/12/18 12:38:22;;;;;;;38.78;25.08;;;;;;;;;;4973838;28;20123;-74
2023/12/18 12:40:48;;;;;;;38.10;25.67;;;;;;;;;;4971803;28;20043;-74
2023/12/18 12:43:17;;;;;;;41.70;25.58;;;;;;;;;;4973976;28;20058;-75
2023/12/18 12:45:43;;;;;;;41.33;26.08;;;;;;;;;;4974450;28;20058;-75
2023/12/18 12:48:11;;;;;;;41.22;25.48;;;;;;;;;;4974571;28;20078;-75
2023/12/18 12:50:37;;;;;;;35.45;23.08;;;;;;;;;;4964576;28;20407;-75
2023/12/18 12:53:04;;;;;;;37.88;24.10;;;;;;;;;;4967427;28;20046;-75
2023/12/18 12:55:30;;;;;;;37.90;24.15;;;;;;;;;;4974290;28;20058;-74
2023/12/18 12:57:56;;;;;;;34.40;22.90;;;;;;;;;;4972748;28;20487;-75
2023/12/18 13:00:23;;;;;;;31.35;23.00;;;;;;;;;;4955592;29;20062;-75
2023/12/18 13:02:49;;;;;;;33.53;22.75;;;;;;;;;;4955307;29;20110;-74
2023/12/18 13:05:15;;;;;;;37.75;23.63;;;;;;;;;;4955722;29;20112;-75
2023/12/18 13:07:41;;;;;;;35.33;21.75;;;;;;;;;;4956221;28;20051;-75
2023/12/18 13:10:10;;;;;;;34.08;24.42;;;;;;;;;;4955312;29;20138;-75
2023/12/18 13:12:36;;;;;;;44.03;22.90;;;;;;;;;;4960948;28;20061;-75
2023/12/18 13:15:04;;;;;;;31.70;22.13;;;;;;;;;;4973744;28;20050;-74
2023/12/18 13:17:30;;;;;;;37.38;23.67;;;;;;;;;;4974556;28;20058;-75
2023/12/18 13:19:56;;;;;;;39.33;22.10;;;;;;;;;;4961180;28;20473;-75
2023/12/18 13:22:22;;;;;;;38.55;22.23;;;;;;;;;;4961625;28;20492;-75
2023/12/18 13:24:48;;;;;;;37.25;22.58;;;;;;;;;;4974214;28;20441;-75
2023/12/18 13:27:15;;;;;;;40.90;22.08;;;;;;;;;;4974134;28;20152;-75
2023/12/18 13:29:42;;;;;;;34.70;22.60;;;;;;;;;;4974153;28;20047;-75
2023/12/18 13:32:08;;;;;;;33.88;21.55;;;;;;;;;;4974155;28;20381;-75
2023/12/18 13:34:34;;;;;;;36.42;20.85;;;;;;;;;;4973889;28;20145;-75
2023/12/18 13:37:01;;;;;;;31.73;20.92;;;;;;;;;;4966700;28;20092;-75
2023/12/18 13:39:27;;;;;;;31.75;20.23;;;;;;;;;;4954481;29;20450;-75
2023/12/18 13:41:55;;;;;;;33.45;21.77;;;;;;;;;;4954893;29;20048;-75
2023/12/18 13:44:22;;;;;;;28.65;20.42;;;;;;;;;;4954733;28;20051;-75
2023/12/18 13:46:48;;;;;;;33.15;20.45;;;;;;;;;;4954696;29;20051;-75
2023/12/18 13:49:14;;;;;;;34.72;21.17;;;;;;;;;;4961209;28;20055;-75
2023/12/18 13:51:40;;;;;;;35.40;19.63;;;;;;;;;;4955930;28;20365;-75
2023/12/18 13:54:06;;;;;;;33.88;19.55;;;;;;;;;;4973400;28;20567;-75
2023/12/18 13:56:33;;;;;;;33.83;19.63;;;;;;;;;;4973637;28;20560;-75
2023/12/18 13:59:02;;;;;;;32.80;19.98;;;;;;;;;;4973699;28;20113;-75
2023/12/18 14:01:28;;;;;;;33.22;20.55;;;;;;;;;;4973834;28;20039;-75
2023/12/18 14:03:54;;;;;;;31.02;19.35;;;;;;;;;;4973193;28;20509;-75
2023/12/18 14:06:20;;;;;;;33.30;18.95;;;;;;;;;;4972146;28;20043;-75
2023/12/18 14:08:47;;;;;;;35.40;20.38;;;;;;;;;;4973726;28;20055;-75
2023/12/18 14:11:13;;;;;;;31.40;18.65;;;;;;;;;;4956114;28;20047;-75
2023/12/18 14:13:39;;;;;;;28.90;19.17;;;;;;;;;;4971357;28;20055;-75